• Join FlightAware (Why Join?)
  • Login
  • US Flag 
11:09PM EST


 

Airport Tracker/Info


-or-


 

Live Flight TrackerFlight Track Log ✈ EJA951 ✈ 17-Mar-2014 ✈ KJAX - KSLC

Flight Track Log - Related Links

Times and Time Zones

All times are in EDT time to prevent confusion due to time zone crossing. See the EJA951 flight status page for this flight to view local times or setup timezone preferences in your user account.

Time Position Orientation Groundspeed Altitude Reporting Facility
EDT Latitude Longitude Course Direction KTS MPH feet Rate Location/Type
01:15PM 30.5111 -81.6483 North 187 215 1,500  Level Jacksonville Center
01:16PM 30.5569 -81.6478 29° Northeast 196 226 4,100 2,460 Climbing Jacksonville Center
01:16PM 30.5719 -81.6767 301° West 213 245 5,500 2,520 Climbing Jacksonville Center
01:17PM 30.5636 -81.7056 251° West 208 239 6,700 2,880 Climbing Jacksonville Center
01:17PM 30.5494 -81.7394 244° Southwest 208 239 8,400 2,400 Climbing Jacksonville Center
01:18PM 30.5250 -81.8003 245° Southwest 207 238 10,500 1,680 Climbing Jacksonville Center
01:19PM 30.4942 -81.8775 245° Southwest 256 295 11,800 1,440 Climbing Jacksonville Center
01:20PM 30.4614 -81.9528 243° Southwest 280 322 13,400 1,800 Climbing Jacksonville Center
01:21PM 30.4244 -82.0372 243° Southwest 291 335 15,400 1,920 Climbing Jacksonville Center
01:22PM 30.3958 -82.1267 250° West 291 335 17,300 1,800 Climbing Jacksonville Center
01:23PM 30.4025 -82.2231 275° West 291 335 19,000 1,560 Climbing Jacksonville Center
01:24PM 30.4114 -82.3144 276° West 291 335 20,500 1,200 Climbing Jacksonville Center
01:25PM 30.4200 -82.4108 276° West 291 335 21,400 900 Climbing Jacksonville Center
01:26PM 30.4267 -82.5094 275° West 298 343 22,400 840 Climbing Jacksonville Center
01:27PM 30.4353 -82.6131 276° West 311 358 23,100 900 Climbing Jacksonville Center
01:28PM 30.4500 -82.7239 279° West 336 387 24,300 1,260 Climbing Jacksonville Center
01:29PM 30.4606 -82.8394 276° West 354 407 25,700 1,440 Climbing Jacksonville Center
01:30PM 30.4733 -82.9528 277° West 360 414 27,200 1,320 Climbing Jacksonville Center
01:31PM 30.4878 -83.0661 278° West 360 414 28,400 1,200 Climbing Jacksonville Center
01:32PM 30.5000 -83.1867 277° West 371 427 29,600 1,200 Climbing Jacksonville Center
01:33PM 30.5122 -83.3050 277° West 371 427 30,800 1,200 Climbing Jacksonville Center
01:34PM 30.5264 -83.4281 278° West 376 433 32,000 1,200 Climbing Jacksonville Center
01:35PM 30.5361 -83.5511 275° West 381 438 33,200 1,200 Climbing Jacksonville Center
01:36PM 30.5397 -83.6764 272° West 387 445 34,400 1,200 Climbing Jacksonville Center
01:37PM 30.5453 -83.7994 273° West 387 445 35,600 1,200 Climbing Jacksonville Center
01:38PM 30.5464 -83.9250 271° West 387 445 36,800 1,140 Climbing Jacksonville Center
01:39PM 30.5514 -84.0481 273° West 382 440 37,900 1,140 Climbing Jacksonville Center
01:40PM 30.5481 -84.1856 268° West 382 440 39,100 900 Climbing Jacksonville Center
01:41PM 30.5531 -84.3061 273° West 382 440 39,800 420 Climbing Jacksonville Center
01:42PM 30.5725 -84.4319 280° West 382 440 40,000 60 Climbing Jacksonville Center
01:43PM 30.6147 -84.5581 291° West 402 463 40,000  Level Jacksonville Center
01:44PM 30.6547 -84.6917 289° West 423 487 40,000  Level Jacksonville Center
01:45PM 30.6986 -84.8278 291° West 436 502 40,000  Level Jacksonville Center
01:46PM 30.7383 -84.9639 289° West 443 510 40,000  Level Jacksonville Center
01:47PM 30.7797 -85.0978 290° West 448 516 40,000  Level Jacksonville Center
01:48PM 30.7961 -85.2311 278° West 434 499 40,000  Level Jacksonville Center
01:49PM 30.7978 -85.3692 271° West 429 494 40,000  Level Jacksonville Center
01:50PM 30.8014 -85.4997 272° West 423 487 40,000  Level Jacksonville Center
01:51PM 30.8050 -85.6328 272° West 418 481 40,000  Level Jacksonville Center
01:52PM 30.8083 -85.7683 272° West 418 481 40,000  Level Jacksonville Center
01:53PM 30.8114 -85.9039 272° West 423 487 40,000  Level Jacksonville Center
01:54PM 30.8103 -86.0369 269° West 418 481 40,000  Level Jacksonville Center
01:55PM 30.8153 -86.1678 273° West 418 481 40,000  Level Jacksonville Center
01:56PM 30.8181 -86.3033 271° West 418 481 40,000  Level Jacksonville Center
01:57PM 30.8206 -86.4339 271° West 418 481 40,000  Level Jacksonville Center
01:58PM 30.8231 -86.5669 271° West 418 481 40,000  Level Jacksonville Center
01:59PM 30.8319 -86.6883 275° West 418 481 40,000  Level Jacksonville Center
02:00PM 30.8489 -86.8244 278° West 423 487 40,000  Level Jacksonville Center
02:01PM 30.8678 -86.9536 280° West 423 487 40,000  Level Jacksonville Center
02:03PM 30.8967 -87.1644 279° West 418 481 40,000  Level Houston Center
02:04PM 30.9200 -87.3256 280° West 420 483 40,000 240 Level Houston Center
02:05PM 30.9383 -87.4592 279° West 420 483 40,600 600 Climbing Houston Center
02:06PM 30.9569 -87.5911 279° West 417 480 41,300 660 Climbing Houston Center
02:07PM 30.9769 -87.7325 279° West 409 471 42,000 660 Climbing Houston Center
02:08PM 30.9944 -87.8600 279° West 402 463 42,700 480 Climbing Houston Center
02:09PM 31.0122 -87.9864 279° West 397 457 43,000 120 Climbing Houston Center
02:10PM 31.0300 -88.1142 279° West 397 457 43,000  Level Houston Center
02:11PM 31.0464 -88.2439 278° West 401 461 43,000  Level Houston Center
02:12PM 31.0689 -88.4025 279° West 410 472 43,000  Level Houston Center
02:13PM 31.0878 -88.5358 279° West 416 479 43,000  Level Houston Center
02:14PM 31.1047 -88.6703 278° West 414 476 43,000  Level Houston Center
02:15PM 31.1214 -88.8039 278° West 414 476 43,000  Level Houston Center
02:17PM 31.1386 -88.9350 279° West 414 476 43,000  Level Houston Center
02:18PM 31.1614 -89.0986 279° West 422 486 43,000  Level Houston Center
02:19PM 31.1783 -89.2325 278° West 424 488 43,000  Level Houston Center
02:20PM 31.1947 -89.3661 278° West 421 484 43,000  Level Houston Center
02:21PM 31.2122 -89.4994 279° West 421 484 43,000  Level Houston Center
02:22PM 31.2283 -89.6331 278° West 420 483 43,000  Level Houston Center
02:23PM 31.2481 -89.7928 278° West 419 482 43,000  Level Houston Center
02:24PM 31.2642 -89.9269 278° West 419 482 43,000  Level Houston Center
02:25PM 31.2800 -90.0603 278° West 419 482 43,000  Level Houston Center
02:26PM 31.2958 -90.1956 278° West 421 484 43,000  Level Houston Center
02:27PM 31.3228 -90.3292 283° West 422 486 43,000  Level Houston Center
02:28PM 31.3700 -90.4892 289° West 433 498 43,000  Level Houston Center
02:29PM 31.4089 -90.6225 289° West 434 499 43,000  Level Houston Center
02:30PM 31.4458 -90.7569 288° West 434 499 43,000  Level Houston Center
02:31PM 31.4842 -90.8917 288° West 436 502 43,000  Level Houston Center
02:32PM 31.5231 -91.0281 289° West 440 506 43,000  Level Houston Center
02:33PM 31.5744 -91.1842 291° West 446 513 43,000  Level Houston Center
02:34PM 31.6308 -91.3164 297° West 451 519 43,000  Level Houston Center
02:35PM 31.6861 -91.4497 296° West 454 522 43,000  Level Houston Center
02:36PM 31.7411 -91.5831 296° West 455 524 43,000  Level Houston Center
02:37PM 31.8078 -91.7447 296° West 457 526 43,000  Level Houston Center
02:38PM 31.8639 -91.8803 296° West 459 528 43,000  Level Houston Center
02:39PM 31.9189 -92.0144 296° West 459 528 43,000  Level Houston Center
02:40PM 31.9781 -92.1619 295° West 460 529 43,000  Level Houston Center
02:41PM 32.0328 -92.2961 296° West 458 527 43,000  Level Houston Center
02:42PM 32.0875 -92.4303 296° West 458 527 43,000  Level Houston Center
02:43PM 32.1394 -92.5639 295° West 455 524 43,000  Level Houston Center
02:44PM 32.1997 -92.7100 296° West 451 519 43,000  Level Houston Center
02:46PM 32.2517 -92.8439 295° West 451 519 43,000  Level Houston Center
02:46PM 32.2958 -92.9508 296° West 453 521 43,000  Level Fort Worth Center
02:47PM 32.3533 -93.0944 295° West 452 520 43,000  Level Fort Worth Center
02:48PM 32.4067 -93.2292 295° West 452 520 43,000  Level Fort Worth Center
02:49PM 32.4544 -93.3675 292° West 452 520 43,000  Level Fort Worth Center
02:50PM 32.4978 -93.5047 291° West 450 518 43,000  Level Fort Worth Center
02:51PM 32.5417 -93.6439 291° West 450 518 43,000  Level Fort Worth Center
02:52PM 32.5867 -93.7861 291° West 452 520 43,000  Level Fort Worth Center
02:54PM 32.6394 -93.9533 291° West 455 524 43,000  Level Fort Worth Center
02:55PM 32.6828 -94.0950 290° West 454 522 43,000  Level Fort Worth Center
02:56PM 32.7272 -94.2367 290° West 454 522 43,000  Level Fort Worth Center
02:57PM 32.7711 -94.3786 290° West 455 524 43,000  Level Fort Worth Center
02:58PM 32.8144 -94.5222 290° West 457 526 43,000  Level Fort Worth Center
02:59PM 32.8589 -94.6642 290° West 458 527 43,000  Level Fort Worth Center
03:00PM 32.9106 -94.8369 290° West 458 527 43,000  Level Fort Worth Center
03:01PM 32.9539 -94.9783 290° West 457 526 43,000  Level Fort Worth Center
03:02PM 33.0019 -95.1344 290° West 458 527 43,000  Level Fort Worth Center
03:03PM 33.0417 -95.2644 290° West 458 527 43,000  Level Fort Worth Center
03:04PM 33.0836 -95.4075 289° West 457 526 43,000  Level Fort Worth Center
03:05PM 33.1269 -95.5503 290° West 456 525 43,000  Level Fort Worth Center
03:06PM 33.1725 -95.7089 289° West 456 525 43,000  Level Fort Worth Center
03:07PM 33.2164 -95.8517 290° West 458 527 43,000  Level Fort Worth Center
03:08PM 33.2578 -95.9953 289° West 458 527 43,000  Level Fort Worth Center
03:09PM 33.3097 -96.1681 290° West 460 529 43,000  Level Fort Worth Center
03:10PM 33.3511 -96.3119 289° West 461 531 43,000  Level Fort Worth Center
03:11PM 33.3925 -96.4561 289° West 461 531 43,000  Level Fort Worth Center
03:12PM 33.4339 -96.5992 289° West 459 528 43,000  Level Fort Worth Center
03:13PM 33.4836 -96.7375 293° West 459 528 43,000  Level Fort Worth Center
03:14PM 33.5672 -96.8878 304° West 455 524 43,000  Level Fort Worth Center
03:15PM 33.6364 -97.0144 303° West 454 522 43,000  Level Fort Worth Center
03:16PM 33.7100 -97.1525 303° West 454 522 43,000  Level Fort Worth Center
03:17PM 33.7719 -97.2642 304° West 453 521 43,000  Level Fort Worth Center
03:18PM 33.8394 -97.3900 303° West 452 520 43,000  Level Fort Worth Center
03:19PM 33.9206 -97.5397 303° West 448 516 43,000  Level Fort Worth Center
03:20PM 33.9889 -97.6672 303° West 449 517 43,000  Level Fort Worth Center
03:21PM 34.0569 -97.7947 303° West 450 518 43,000  Level Fort Worth Center
03:23PM 34.1328 -97.9403 302° West 452 520 43,000  Level Fort Worth Center
03:24PM 34.2008 -98.0672 303° West 452 520 43,000  Level Fort Worth Center
03:25PM 34.2742 -98.2042 303° West 452 520 43,000  Level Fort Worth Center
03:26PM 34.3289 -98.3078 303° West 453 521 43,000  Level Fort Worth Center
03:27PM 34.4142 -98.4728 302° West 459 528 43,000  Level Fort Worth Center
03:28PM 34.4894 -98.6144 303° West 462 532 43,000  Level Fort Worth Center
03:29PM 34.5542 -98.7394 302° West 467 537 43,000  Level Fort Worth Center
03:30PM 34.6292 -98.8847 302° West 467 537 43,000  Level Fort Worth Center
03:31PM 34.6914 -99.0058 302° West 464 534 43,000  Level Fort Worth Center
03:32PM 34.7603 -99.1406 302° West 464 534 43,000  Level Fort Worth Center
03:33PM 34.8286 -99.2725 302° West 463 533 43,000  Level Fort Worth Center
03:34PM 34.9086 -99.4297 302° West 457 526 43,000  Level Fort Worth Center
03:35PM 34.9753 -99.5600 302° West 453 521 43,000  Level Fort Worth Center
03:36PM 35.0144 -99.6383 301° West 451 519 43,000  Level Albuquerque Center
03:37PM 35.0814 -99.7700 302° West 454 522 43,000  Level Albuquerque Center
03:38PM 35.1472 -99.9017 301° West 452 520 43,000  Level Albuquerque Center
03:39PM 35.2139 -100.0331 302° West 453 521 43,000  Level Albuquerque Center
03:40PM 35.2781 -100.1647 301° West 450 518 43,000  Level Albuquerque Center
03:41PM 35.3439 -100.2944 302° West 447 514 43,000  Level Albuquerque Center
03:42PM 35.4211 -100.4517 301° West 447 514 43,000  Level Albuquerque Center
03:43PM 35.4856 -100.5819 301° West 446 513 43,000  Level Albuquerque Center
03:44PM 35.5528 -100.7200 301° West 447 514 43,000  Level Albuquerque Center
03:45PM 35.6147 -100.8486 301° West 444 511 43,000  Level Albuquerque Center
03:46PM 35.6781 -100.9778 301° West 443 510 43,000  Level Albuquerque Center
03:47PM 35.7406 -101.1078 301° West 443 510 43,000  Level Albuquerque Center
03:48PM 35.8175 -101.2653 301° West 448 516 43,000  Level Albuquerque Center
03:49PM 35.8797 -101.3989 300° West 451 519 43,000  Level Albuquerque Center
03:50PM 35.9436 -101.5281 301° West 449 517 43,000  Level Albuquerque Center
03:51PM 36.0061 -101.6600 300° West 449 517 43,000  Level Albuquerque Center
03:52PM 36.0694 -101.7931 301° West 451 519 43,000  Level Albuquerque Center
03:53PM 36.1458 -101.9536 301° West 454 522 43,000  Level Albuquerque Center
03:54PM 36.2067 -102.0850 300° West 447 514 43,000  Level Albuquerque Center
03:55PM 36.2697 -102.2194 300° West 449 517 43,000  Level Albuquerque Center
03:56PM 36.3339 -102.3536 301° West 453 521 43,000  Level Albuquerque Center
03:57PM 36.3956 -102.4875 300° West 450 518 43,000  Level Albuquerque Center
03:58PM 36.4581 -102.6219 300° West 450 518 43,000  Level Albuquerque Center
03:59PM 36.5292 -102.7761 300° West 435 501 43,000  Level Albuquerque Center
04:00PM 36.5861 -102.9000 300° West 439 505 43,000  Level Albuquerque Center
04:01PM 36.6533 -103.0456 300° West 439 505 43,000  Level Albuquerque Center
04:02PM 36.7097 -103.1706 299° West 435 501 43,000  Level Albuquerque Center
04:03PM 36.7750 -103.3144 300° West 428 493 43,000  Level Albuquerque Center
04:04PM 36.8308 -103.4372 300° West 425 489 43,000  Level Albuquerque Center
04:06PM 36.8964 -103.5819 300° West 427 491 43,000  Level Albuquerque Center
04:07PM 36.9517 -103.7061 299° West 426 490 43,000  Level Albuquerque Center
04:08PM 37.0158 -103.8506 299° West 425 489 43,000  Level Albuquerque Center
04:09PM 37.0714 -103.9728 300° West 422 486 43,000  Level Albuquerque Center
04:10PM 37.1261 -104.0967 299° West 421 484 43,000  Level Albuquerque Center
04:10PM 37.1631 -104.1817 299° West 427 491 43,000  Level Denver Center
04:11PM 37.2303 -104.3328 299° West 437 503 43,000  Level Denver Center
04:12PM 37.2861 -104.4581 299° West 430 495 43,000  Level Denver Center
04:13PM 37.3383 -104.5797 298° West 416 479 43,000  Level Denver Center
04:14PM 37.4019 -104.7256 299° West 419 482 43,000  Level Denver Center
04:15PM 37.4561 -104.8506 299° West 420 483 43,000  Level Denver Center
04:16PM 37.5197 -104.9972 299° West 423 487 43,000  Level Denver Center
04:17PM 37.5758 -105.1272 299° West 434 499 43,000  Level Denver Center
04:19PM 37.6444 -105.2883 298° West 462 532 43,000  Level Denver Center
04:20PM 37.7058 -105.4278 299° West 473 544 43,000  Level Denver Center
04:21PM 37.7653 -105.5667 298° West 472 543 43,000  Level Denver Center
04:22PM 37.8308 -105.7275 297° West 466 536 43,000  Level Denver Center
04:23PM 37.8892 -105.8653 298° West 465 535 43,000  Level Denver Center
04:24PM 37.9569 -106.0253 298° West 464 534 43,000  Level Denver Center
04:25PM 38.0144 -106.1639 298° West 463 533 43,000  Level Denver Center
04:26PM 38.0711 -106.2992 298° West 457 526 43,000  Level Denver Center
04:27PM 38.1303 -106.4464 297° West 458 527 43,000  Level Denver Center
04:28PM 38.1975 -106.6108 298° West 454 522 43,000  Level Denver Center
04:29PM 38.2528 -106.7467 297° West 452 520 43,000  Level Denver Center
04:30PM 38.3144 -106.9003 297° West 451 519 43,000  Level Denver Center
04:31PM 38.3714 -107.0383 298° West 443 510 43,000  Level Denver Center
04:32PM 38.4167 -107.1519 297° West 443 510 43,000  Level Denver Center
04:33PM 38.4869 -107.3244 298° West 441 507 43,000  Level Denver Center
04:34PM 38.5383 -107.4581 296° West 441 507 43,000  Level Denver Center
04:35PM 38.6067 -107.6333 297° West 434 499 43,000  Level Denver Center
04:36PM 38.6597 -107.7603 298° West 425 489 43,000  Level Denver Center
04:37PM 38.7194 -107.9158 296° West 431 496 43,000  Level Denver Center
04:38PM 38.7714 -108.0478 297° West 434 499 43,000  Level Denver Center
04:39PM 38.8306 -108.1994 297° West 429 494 43,000  Level Denver Center
04:40PM 38.8828 -108.3325 297° West 432 497 43,000  Level Denver Center
04:41PM 38.9425 -108.4892 296° West 434 499 43,000  Level Denver Center
04:42PM 38.9931 -108.6183 297° West 426 490 43,000  Level Denver Center
04:43PM 39.0425 -108.7489 296° West 424 488 43,000  Level Denver Center
04:44PM 39.1042 -108.9039 297° West 430 495 43,000  Level Denver Center
04:45PM 39.1583 -109.0361 298° West 431 496 43,000 -480 Level Denver Center
04:47PM 39.2206 -109.1917 297° West 432 497 42,100 -1,620 Descending Denver Center
04:48PM 39.2736 -109.3225 298° West 430 495 39,700 -2,340 Descending Denver Center
04:49PM 39.3242 -109.4517 297° West 420 483 37,500 -2,340 Descending Salt Lake Center
04:50PM 39.3872 -109.6083 298° West 437 503 35,000 -2,220 Descending Salt Lake Center
04:51PM 39.4372 -109.7367 297° West 420 483 33,000 -1,500 Descending Salt Lake Center
04:52PM 39.4897 -109.8694 297° West 429 494 32,000 -540 Descending Salt Lake Center
04:53PM 39.5500 -110.0236 297° West 430 495 32,000  Level Salt Lake Center
04:54PM 39.6025 -110.1597 297° West 434 499 32,000  Level Salt Lake Center
04:55PM 39.6658 -110.3203 297° West 444 511 32,000  Level Salt Lake Center
04:56PM 39.7181 -110.4564 297° West 443 510 32,000 -120 Level Salt Lake Center
04:57PM 39.7778 -110.6136 296° West 438 504 31,800 -780 Descending Salt Lake Center
04:58PM 39.8278 -110.7433 297° West 425 489 30,400 -1,620 Descending Salt Lake Center
04:59PM 39.8747 -110.8653 297° West 400 460 28,500 -1,500 Descending Salt Lake Center
05:00PM 39.9269 -111.0022 296° West 382 440 27,400 -1,500 Descending Salt Lake Center
05:01PM 39.9719 -111.1214 296° West 381 438 25,500 -2,220 Descending Salt Lake Center
05:02PM 40.0211 -111.2525 296° West 368 423 22,900 -2,400 Descending Salt Lake Center
05:03PM 40.0608 -111.3631 295° West 335 386 20,700 -2,100 Descending Salt Lake Center
05:04PM 40.1011 -111.4706 296° West 331 381 18,700 -2,040 Descending Salt Lake Center
05:05PM 40.1242 -111.5497 291° West 316 364 17,200 -2,040 Descending Salt Lake Center
05:05PM 40.1397 -111.5733 311° West 318 366 16,600 -1,740 Descending Salt Lake Center
05:05PM 40.1511 -111.6192 288° West 300 345 16,000 -900 Descending Salt Lake Center
05:06PM 40.1728 -111.6633 303° West 273 314 15,700 -960 Descending Salt Lake Center
05:07PM 40.1969 -111.7186 300° West 266 306 14,900 -1,500 Descending Salt Lake Center
05:07PM 40.2203 -111.7369 329° Northwest 267 307 14,200 -1,920 Descending Salt Lake Center
05:08PM 40.2494 -111.7878 307° West 267 307 13,000 -1,800 Descending Salt Lake Center
05:08PM 40.2711 -111.8067 326° Northwest 267 307 12,400 -1,380 Descending Salt Lake Center
05:08PM 40.3006 -111.8492 312° West 263 303 11,800 -1,020 Descending Salt Lake Center
05:09PM 40.3258 -111.8675 331° Northwest 256 295 11,400 -660 Descending Salt Lake Center
05:10PM 40.3703 -111.9183 319° Northwest 264 304 11,000 -420 Descending Salt Lake Center
05:10PM 40.3847 -111.9244 342° North 262 302 11,000 -240 Level Salt Lake Center
05:11PM 40.4353 -111.9414 346° North 245 282 10,800 -600 Descending Salt Lake Center
05:11PM 40.4631 -111.9392 North 231 266 10,400 -1,020 Descending Salt Lake Center
05:11PM 40.4786 -111.9436 348° North 221 254 10,100 -1,200 Descending Salt Lake Center
05:12PM 40.5258 -111.9442 359° North 226 260 9,200 -1,200 Descending Salt Lake Center
05:12PM 40.5425 -111.9503 344° North 227 261 8,900 -1,080 Descending Salt Lake Center
05:13PM 40.5825 -111.9517 358° North 200 230 8,100 -1,200 Descending Salt Lake Center
05:13PM 40.5975 -111.9569 345° North 181 208 7,700 -1,020 Descending Salt Lake Center
05:14PM 40.6303 -111.9567 360° North 178 205 7,100 -840 Descending Salt Lake Center
05:15PM 40.6522 -111.9611 351° North 160 184 6,700 -900 Descending Salt Lake Center
05:15PM 40.6753 -111.9614 359° North 165 190 6,200 -840 Descending Salt Lake Center
05:16PM 40.7050 -111.9658 354° North 161 185 5,700 -720 Descending Salt Lake Center
05:16PM 40.7169 -111.9656 North 152 175 5,500 -840 Descending Salt Lake Center
05:16PM 40.7250 -111.9703 336° Northwest 122 140 5,200 -720 Descending Salt Lake Center
05:17PM 40.7500 -111.9703 360° North 126 145 4,800 -660 Descending Salt Lake Center
05:17PM 40.7581 -111.9733 344° North 125 144 4,600 -600 Descending Salt Lake Center
05:18PM 40.7842 -111.9736 360° North 125 144 4,200 -480 Descending Salt Lake Center
05:20PM 40.7833 -111.9667 North  Level FlightAware Approximate